Portada
METAR-TAF:

METAR-TAF

Aeroports :

Broken Hill, Austràlia

latitud: 32-00-06S, longitud: 141-28-18E, altitud: 292 m

Observació

L'informe es va fer fa 28 minuts, a les 20:00 UTC
Vent calma
Temperatura 5°C
Humitat 65%
Pressió 1017 hPa
Visibilitat 10 km o més
Cel cobert a una alçada de 5500 ft

METAR: YBHI 162000Z AUTO 00000KT 9999 // OVC055 05/M01 Q1017

Hora: 05:58 (20:28 UTC)


TAF: manca

Observacions i pronòstics meteorològics de més de 4000 aeroports (METAR i TAF).

Les estacions disponibles són els punts grocs i vermells al mapa.

Posi el ratolí al punt desitjat per veure el nom de l'estació.

Feu clic per veure les observacions i els pronòstics meteorològics.

Per canviar el mapa: feu clic els botons verds amb una creu de color negre per apropar; al botó verd amb un guió per allunyar la imatge; o en les fletxes verdes per a mapes adjacents.


METAR-TAF: